createdAt,value
2022-08-30T00:01:03.065Z,14.37
2022-08-30T00:06:06.624Z,9.13
2022-08-30T00:11:10.927Z,13.47
2022-08-30T00:16:13.636Z,10.80
2022-08-30T00:21:16.347Z,11.17
2022-08-30T00:26:18.189Z,14.33
2022-08-30T00:31:20.468Z,10.47
2022-08-30T00:36:22.388Z,10.30
2022-08-30T00:41:24.215Z,14.93
2022-08-30T00:46:26.559Z,9.87
2022-08-30T00:51:28.841Z,8.77
2022-08-30T00:56:31.640Z,10.03
2022-08-30T01:01:34.435Z,9.00
2022-08-30T01:06:37.160Z,10.23
2022-08-30T01:11:41.733Z,8.90
2022-08-30T01:16:45.128Z,10.90
2022-08-30T01:21:52.334Z,11.13
2022-08-30T01:26:54.514Z,10.50
2022-08-30T01:31:56.425Z,8.67
2022-08-30T01:36:58.252Z,11.20
2022-08-30T01:42:02.753Z,9.17
2022-08-30T01:47:05.343Z,10.87
2022-08-30T01:52:07.816Z,15.73
2022-08-30T01:57:12.943Z,13.13
2022-08-30T02:02:16.042Z,13.70
2022-08-30T02:07:18.305Z,13.40
2022-08-30T02:12:20.506Z,12.13
2022-08-30T02:17:23.059Z,11.90
2022-08-30T02:22:25.293Z,12.87
2022-08-30T02:27:27.800Z,13.70
2022-08-30T02:32:29.601Z,11.70
2022-08-30T02:37:31.454Z,12.60
2022-08-30T02:42:33.807Z,10.77
2022-08-30T02:47:36.312Z,13.17
2022-08-30T02:52:38.261Z,11.63
2022-08-30T02:57:40.493Z,12.87
2022-08-30T03:02:43.036Z,14.27
2022-08-30T03:07:48.533Z,14.50
2022-08-30T03:12:50.468Z,12.50
2022-08-30T03:17:53.569Z,10.97
2022-08-30T03:22:55.813Z,10.70
2022-08-30T03:27:57.692Z,11.93
2022-08-30T03:33:00.300Z,11.93
2022-08-30T03:38:03.294Z,12.83
2022-08-30T03:43:05.600Z,11.20
2022-08-30T03:48:07.515Z,10.80
2022-08-30T03:53:09.524Z,15.83
2022-08-30T03:58:11.962Z,13.27
2022-08-30T04:03:14.207Z,17.03
2022-08-30T04:08:16.420Z,13.70
2022-08-30T04:13:18.682Z,16.40
2022-08-30T04:18:20.669Z,14.70
2022-08-30T04:23:22.923Z,13.60
2022-08-30T04:28:24.808Z,13.30
2022-08-30T04:33:26.661Z,14.10
2022-08-30T04:38:30.571Z,16.63
2022-08-30T04:43:33.148Z,12.50
2022-08-30T04:48:36.186Z,14.37
2022-08-30T04:53:38.681Z,15.50
2022-08-30T04:58:40.490Z,19.43
2022-08-30T05:03:42.776Z,18.80
2022-08-30T05:08:45.916Z,18.80
2022-08-30T05:13:49.743Z,15.47
2022-08-30T05:18:54.562Z,13.13
2022-08-30T05:24:00.260Z,12.77
2022-08-30T05:29:02.590Z,12.37
2022-08-30T05:34:05.310Z,14.77
2022-08-30T05:39:09.109Z,14.67
2022-08-30T05:44:11.597Z,15.33
2022-08-30T05:49:13.503Z,14.27
2022-08-30T05:54:16.076Z,15.87
2022-08-30T05:59:18.009Z,13.27
2022-08-30T06:04:20.247Z,14.90
2022-08-30T06:09:23.227Z,15.80
2022-08-30T06:14:25.470Z,13.47
2022-08-30T06:19:27.308Z,15.80
2022-08-30T06:24:55.925Z,17.77
2022-08-30T06:29:54.308Z,17.67
2022-08-30T06:34:56.195Z,16.27
2022-08-30T06:39:59.595Z,14.40
2022-08-30T06:45:02.655Z,18.37
2022-08-30T06:50:14.212Z,17.97
2022-08-30T06:55:18.296Z,17.10
2022-08-30T07:00:20.549Z,13.63
2022-08-30T07:05:23.711Z,15.43
2022-08-30T07:10:26.312Z,15.67
2022-08-30T07:15:28.545Z,15.70
2022-08-30T07:20:40.527Z,15.13
2022-08-30T07:25:42.702Z,12.77
2022-08-30T07:30:44.543Z,13.50
2022-08-30T07:35:46.776Z,16.87
2022-08-30T07:40:49.101Z,12.73
2022-08-30T07:45:51.044Z,20.73
2022-08-30T07:50:57.570Z,15.07
2022-08-30T07:56:00.940Z,15.83
2022-08-30T08:01:09.329Z,14.60
2022-08-30T08:06:13.812Z,15.80
2022-08-30T08:11:22.443Z,14.40
2022-08-30T08:16:28.120Z,14.37
2022-08-30T08:21:30.444Z,13.63
2022-08-30T08:26:34.623Z,9.67
2022-08-30T08:31:36.807Z,10.50
2022-08-30T08:36:39.199Z,11.67
2022-08-30T08:41:58.753Z,12.03
2022-08-30T08:47:15.966Z,10.60
2022-08-30T08:52:44.466Z,14.10
2022-08-30T08:57:47.835Z,13.10
2022-08-30T09:03:04.368Z,13.57
2022-08-30T09:08:10.447Z,12.67
2022-08-30T09:13:13.501Z,10.30
2022-08-30T09:18:19.900Z,15.00
2022-08-30T09:23:30.476Z,14.43
2022-08-30T09:28:34.758Z,12.60
2022-08-30T09:33:38.028Z,11.27
2022-08-30T09:38:40.163Z,11.17
2022-08-30T09:43:42.108Z,12.50
2022-08-30T09:48:45.773Z,11.63
2022-08-30T09:54:16.504Z,12.10
2022-08-30T09:59:34.761Z,9.73
2022-08-30T10:04:44.428Z,8.63
2022-08-30T10:09:54.835Z,11.93
2022-08-30T10:14:57.192Z,12.90
2022-08-30T10:20:04.064Z,8.30
2022-08-30T10:25:32.376Z,8.70
2022-08-30T10:30:38.691Z,10.27
2022-08-30T10:35:46.675Z,11.17
2022-08-30T10:41:11.413Z,9.67
2022-08-30T10:46:40.345Z,12.20
2022-08-30T10:51:58.896Z,8.90
2022-08-30T10:57:01.362Z,9.50
2022-08-30T11:02:35.798Z,9.20
2022-08-30T11:07:49.454Z,11.00
2022-08-30T11:13:10.579Z,11.03
2022-08-30T11:18:14.639Z,10.93
2022-08-30T11:23:34.422Z,9.33
2022-08-30T11:28:36.250Z,11.53
2022-08-30T11:33:46.234Z,8.20
2022-08-30T11:38:48.162Z,7.97
2022-08-30T11:43:55.648Z,7.30
2022-08-30T11:49:01.069Z,6.50
2022-08-30T11:54:17.941Z,6.20
2022-08-30T11:59:43.296Z,6.40
2022-08-30T12:04:47.800Z,9.93
2022-08-30T12:09:49.693Z,7.57
2022-08-30T12:14:54.660Z,10.90
2022-08-30T12:20:00.948Z,7.33
2022-08-30T12:25:14.054Z,9.13
2022-08-30T12:30:27.014Z,6.57
2022-08-30T12:35:29.198Z,6.17
2022-08-30T12:40:31.641Z,8.00
2022-08-30T12:45:45.718Z,5.27
2022-08-30T12:51:01.004Z,6.40
2022-08-30T12:56:50.080Z,8.77
2022-08-30T13:01:50.705Z,5.13
2022-08-30T13:07:00.214Z,7.53
2022-08-30T13:12:03.529Z,8.30
2022-08-30T13:17:31.987Z,5.83
2022-08-30T13:22:41.365Z,5.10
2022-08-30T13:27:43.938Z,5.17
2022-08-30T13:32:46.312Z,6.87
2022-08-30T13:37:50.720Z,5.17
2022-08-30T13:42:53.924Z,6.93
2022-08-30T13:47:56.021Z,4.80
2022-08-30T13:52:58.194Z,7.53
2022-08-30T13:58:00.041Z,7.07
2022-08-30T14:03:03.141Z,6.30
2022-08-30T14:08:06.449Z,5.90
2022-08-30T14:13:10.075Z,7.10
2022-08-30T14:18:17.247Z,4.73
2022-08-30T14:23:20.600Z,4.90
2022-08-30T14:28:22.886Z,7.43
2022-08-30T14:33:26.135Z,10.40
2022-08-30T14:38:28.825Z,7.70
2022-08-30T14:43:31.484Z,6.20
2022-08-30T14:48:33.501Z,5.07
2022-08-30T14:53:36.676Z,6.57
2022-08-30T14:58:38.773Z,6.70
2022-08-30T15:03:42.188Z,6.20
2022-08-30T15:08:47.587Z,4.93
2022-08-30T15:13:52.952Z,5.60
2022-08-30T15:18:57.235Z,5.57
2022-08-30T15:24:01.266Z,6.30
2022-08-30T15:29:03.579Z,6.10
2022-08-30T15:34:05.894Z,6.73
2022-08-30T15:39:08.809Z,6.97
2022-08-30T15:44:12.777Z,5.90
2022-08-30T15:49:19.418Z,7.53
2022-08-30T15:54:23.396Z,7.00
2022-08-30T15:59:26.329Z,6.00
2022-08-30T16:04:28.692Z,7.07
2022-08-30T16:09:32.435Z,8.90
2022-08-30T16:14:35.522Z,7.20
2022-08-30T16:19:37.714Z,7.90
2022-08-30T16:24:41.396Z,8.90
2022-08-30T16:29:43.396Z,6.23
2022-08-30T16:34:45.372Z,6.30
2022-08-30T16:39:47.934Z,8.30
2022-08-30T16:44:50.581Z,6.70
2022-08-30T16:49:54.360Z,7.57
2022-08-30T16:54:56.183Z,6.53
2022-08-30T16:59:59.733Z,11.63
2022-08-30T17:05:02.599Z,7.20
2022-08-30T17:10:05.256Z,7.17
2022-08-30T17:15:07.932Z,6.57
2022-08-30T17:20:10.568Z,7.67
2022-08-30T17:25:12.453Z,7.70
2022-08-30T17:30:14.467Z,32.73
2022-08-30T17:35:16.675Z,18.23
2022-08-30T17:40:19.867Z,9.37
2022-08-30T17:45:21.888Z,7.33
2022-08-30T17:50:24.515Z,7.77
2022-08-30T17:55:30.797Z,8.80
2022-08-30T18:00:33.385Z,7.30
2022-08-30T18:05:35.606Z,16.67
2022-08-30T18:10:40.748Z,12.70
2022-08-30T18:15:44.196Z,8.87
2022-08-30T18:20:46.434Z,11.43
2022-08-30T18:26:07.301Z,9.47
2022-08-30T18:31:09.597Z,11.23
2022-08-30T18:36:12.397Z,10.53
2022-08-30T18:41:15.149Z,7.50
2022-08-30T18:46:18.589Z,7.97
2022-08-30T18:51:22.215Z,7.23
2022-08-30T18:56:24.246Z,16.37
2022-08-30T19:01:30.564Z,6.77
2022-08-30T19:06:32.547Z,8.70
2022-08-30T19:11:38.303Z,9.00
2022-08-30T19:16:41.274Z,9.63
2022-08-30T19:21:43.737Z,15.70
2022-08-30T19:26:47.037Z,9.30
2022-08-30T19:31:49.146Z,10.10
2022-08-30T19:36:54.279Z,8.27
2022-08-30T19:41:58.174Z,10.50
2022-08-30T19:47:01.793Z,10.53
2022-08-30T19:52:03.837Z,9.60
2022-08-30T19:57:06.419Z,7.17
2022-08-30T20:02:09.101Z,11.07
2022-08-30T20:07:11.245Z,10.13
2022-08-30T20:12:13.329Z,10.00
2022-08-30T20:17:15.692Z,10.63
2022-08-30T20:22:17.969Z,15.17
2022-08-30T20:27:19.890Z,12.03
2022-08-30T20:32:21.746Z,20.53
2022-08-30T20:37:24.217Z,8.90
2022-08-30T20:42:27.022Z,7.03
2022-08-30T20:47:29.028Z,5.90
2022-08-30T20:52:30.849Z,6.80
2022-08-30T20:57:33.771Z,7.20
2022-08-30T21:02:36.353Z,8.80
2022-08-30T21:07:40.078Z,6.03
2022-08-30T21:12:42.943Z,8.73
2022-08-30T21:17:47.617Z,6.13
2022-08-30T21:22:49.578Z,5.60
2022-08-30T21:27:53.034Z,6.10
2022-08-30T21:32:55.137Z,5.33
2022-08-30T21:38:04.311Z,11.73
2022-08-30T21:43:07.523Z,6.23
2022-08-30T21:48:11.017Z,6.30
2022-08-30T21:53:15.501Z,6.37
2022-08-30T21:58:19.327Z,6.17
2022-08-30T22:03:21.408Z,4.17
2022-08-30T22:08:23.317Z,4.83
2022-08-30T22:13:25.848Z,7.37
2022-08-30T22:18:28.331Z,6.67
2022-08-30T22:23:30.946Z,4.87
2022-08-30T22:28:32.949Z,6.43
2022-08-30T22:33:35.824Z,5.90
2022-08-30T22:38:38.150Z,8.00
2022-08-30T22:43:40.468Z,6.90
2022-08-30T22:48:44.568Z,6.03
2022-08-30T22:53:46.464Z,4.63
2022-08-30T22:58:49.279Z,8.10
2022-08-30T23:03:52.181Z,4.00
2022-08-30T23:08:54.389Z,9.03
2022-08-30T23:13:56.811Z,5.10
2022-08-30T23:18:58.973Z,6.73
2022-08-30T23:24:19.471Z,5.57
2022-08-30T23:29:40.196Z,6.50
2022-08-30T23:35:00.795Z,5.30
2022-08-30T23:40:21.761Z,4.03
2022-08-30T23:45:42.036Z,5.30
2022-08-30T23:51:02.318Z,4.60
2022-08-30T23:56:23.038Z,9.27
